sensor_id;sensor_type;location;lat;lon;timestamp;P1;durP1;ratioP1;P2;durP2;ratioP2
55053;SDS011;40954;45.668;18.980;2023-07-31T00:00:03;3.85;;;2.70;;
55053;SDS011;40954;45.668;18.980;2023-07-31T00:02:30;4.88;;;3.40;;
55053;SDS011;40954;45.668;18.980;2023-07-31T00:04:56;3.95;;;3.65;;
55053;SDS011;40954;45.668;18.980;2023-07-31T00:07:22;3.60;;;3.28;;
55053;SDS011;40954;45.668;18.980;2023-07-31T00:09:48;3.95;;;3.20;;
55053;SDS011;40954;45.668;18.980;2023-07-31T00:12:14;5.00;;;3.70;;
55053;SDS011;40954;45.668;18.980;2023-07-31T00:14:40;11.23;;;2.60;;
55053;SDS011;40954;45.668;18.980;2023-07-31T00:17:06;4.07;;;3.60;;
55053;SDS011;40954;45.668;18.980;2023-07-31T00:19:32;4.43;;;4.03;;
55053;SDS011;40954;45.668;18.980;2023-07-31T00:21:58;6.00;;;3.60;;
55053;SDS011;40954;45.668;18.980;2023-07-31T00:24:24;5.40;;;3.88;;
55053;SDS011;40954;45.668;18.980;2023-07-31T00:26:50;3.67;;;3.38;;
55053;SDS011;40954;45.668;18.980;2023-07-31T00:29:16;5.13;;;4.00;;
55053;SDS011;40954;45.668;18.980;2023-07-31T00:31:42;3.67;;;3.38;;
55053;SDS011;40954;45.668;18.980;2023-07-31T00:34:08;3.70;;;3.40;;
55053;SDS011;40954;45.668;18.980;2023-07-31T00:36:34;3.53;;;3.22;;
55053;SDS011;40954;45.668;18.980;2023-07-31T00:39:01;3.65;;;3.35;;
55053;SDS011;40954;45.668;18.980;2023-07-31T00:41:27;3.80;;;3.25;;
55053;SDS011;40954;45.668;18.980;2023-07-31T00:43:53;3.60;;;2.97;;
55053;SDS011;40954;45.668;18.980;2023-07-31T00:46:19;5.78;;;3.72;;
55053;SDS011;40954;45.668;18.980;2023-07-31T00:48:46;5.55;;;4.10;;
55053;SDS011;40954;45.668;18.980;2023-07-31T00:51:12;4.07;;;3.20;;
55053;SDS011;40954;45.668;18.980;2023-07-31T00:53:38;6.03;;;3.65;;
55053;SDS011;40954;45.668;18.980;2023-07-31T00:56:04;3.70;;;3.40;;
55053;SDS011;40954;45.668;18.980;2023-07-31T00:58:31;4.20;;;3.30;;
55053;SDS011;40954;45.668;18.980;2023-07-31T01:00:57;4.00;;;3.67;;
55053;SDS011;40954;45.668;18.980;2023-07-31T01:03:23;3.47;;;3.17;;
55053;SDS011;40954;45.668;18.980;2023-07-31T01:11:17;3.20;;;2.90;;
55053;SDS011;40954;45.668;18.980;2023-07-31T01:13:45;3.60;;;3.30;;
55053;SDS011;40954;45.668;18.980;2023-07-31T01:16:11;3.20;;;2.97;;
55053;SDS011;40954;45.668;18.980;2023-07-31T01:18:37;3.03;;;2.70;;
55053;SDS011;40954;45.668;18.980;2023-07-31T01:21:07;3.15;;;2.83;;
55053;SDS011;40954;45.668;18.980;2023-07-31T01:31:22;3.00;;;2.70;;
55053;SDS011;40954;45.668;18.980;2023-07-31T01:33:49;4.05;;;3.00;;
55053;SDS011;40954;45.668;18.980;2023-07-31T01:36:16;2.63;;;2.42;;
55053;SDS011;40954;45.668;18.980;2023-07-31T01:38:42;6.53;;;2.80;;
55053;SDS011;40954;45.668;18.980;2023-07-31T01:41:08;4.50;;;2.85;;
55053;SDS011;40954;45.668;18.980;2023-07-31T01:43:34;2.95;;;2.75;;
55053;SDS011;40954;45.668;18.980;2023-07-31T01:46:00;3.30;;;3.00;;
55053;SDS011;40954;45.668;18.980;2023-07-31T01:48:26;4.93;;;3.45;;
55053;SDS011;40954;45.668;18.980;2023-07-31T01:50:52;3.42;;;3.13;;
55053;SDS011;40954;45.668;18.980;2023-07-31T01:53:18;3.88;;;3.22;;
55053;SDS011;40954;45.668;18.980;2023-07-31T01:55:44;5.07;;;2.97;;
55053;SDS011;40954;45.668;18.980;2023-07-31T01:58:10;3.28;;;2.97;;
55053;SDS011;40954;45.668;18.980;2023-07-31T02:00:36;5.93;;;2.75;;
55053;SDS011;40954;45.668;18.980;2023-07-31T02:03:02;3.95;;;3.00;;
55053;SDS011;40954;45.668;18.980;2023-07-31T02:05:28;4.03;;;2.42;;
55053;SDS011;40954;45.668;18.980;2023-07-31T02:07:54;4.80;;;3.10;;
55053;SDS011;40954;45.668;18.980;2023-07-31T02:10:20;6.28;;;3.10;;
55053;SDS011;40954;45.668;18.980;2023-07-31T02:12:46;3.45;;;2.60;;
55053;SDS011;40954;45.668;18.980;2023-07-31T02:15:12;2.65;;;2.20;;
55053;SDS011;40954;45.668;18.980;2023-07-31T02:17:39;3.10;;;2.80;;
55053;SDS011;40954;45.668;18.980;2023-07-31T02:20:05;4.20;;;2.90;;
55053;SDS011;40954;45.668;18.980;2023-07-31T02:22:31;6.10;;;3.33;;
55053;SDS011;40954;45.668;18.980;2023-07-31T02:24:57;3.58;;;2.85;;
55053;SDS011;40954;45.668;18.980;2023-07-31T02:27:23;3.25;;;2.85;;
55053;SDS011;40954;45.668;18.980;2023-07-31T02:29:52;5.32;;;2.70;;
55053;SDS011;40954;45.668;18.980;2023-07-31T02:32:18;2.83;;;2.55;;
55053;SDS011;40954;45.668;18.980;2023-07-31T02:34:44;3.75;;;3.03;;
55053;SDS011;40954;45.668;18.980;2023-07-31T02:37:10;2.65;;;2.38;;
55053;SDS011;40954;45.668;18.980;2023-07-31T02:39:36;3.65;;;2.25;;
55053;SDS011;40954;45.668;18.980;2023-07-31T02:42:02;3.17;;;2.90;;
55053;SDS011;40954;45.668;18.980;2023-07-31T02:44:28;6.90;;;3.22;;
55053;SDS011;40954;45.668;18.980;2023-07-31T02:46:54;4.72;;;3.00;;
55053;SDS011;40954;45.668;18.980;2023-07-31T02:49:20;3.10;;;2.72;;
55053;SDS011;40954;45.668;18.980;2023-07-31T02:51:46;3.28;;;2.33;;
55053;SDS011;40954;45.668;18.980;2023-07-31T02:54:12;3.17;;;2.67;;
55053;SDS011;40954;45.668;18.980;2023-07-31T02:56:38;5.72;;;2.80;;
55053;SDS011;40954;45.668;18.980;2023-07-31T02:59:04;5.03;;;2.95;;
55053;SDS011;40954;45.668;18.980;2023-07-31T03:01:31;5.97;;;2.95;;
55053;SDS011;40954;45.668;18.980;2023-07-31T03:03:57;3.33;;;3.03;;
55053;SDS011;40954;45.668;18.980;2023-07-31T03:06:23;4.13;;;2.90;;
55053;SDS011;40954;45.668;18.980;2023-07-31T03:08:49;12.05;;;3.20;;
55053;SDS011;40954;45.668;18.980;2023-07-31T03:11:15;4.70;;;3.00;;
55053;SDS011;40954;45.668;18.980;2023-07-31T03:13:41;2.78;;;2.38;;
55053;SDS011;40954;45.668;18.980;2023-07-31T03:16:07;3.53;;;2.92;;
55053;SDS011;40954;45.668;18.980;2023-07-31T03:18:34;3.50;;;3.20;;
55053;SDS011;40954;45.668;18.980;2023-07-31T03:21:00;3.83;;;2.78;;
55053;SDS011;40954;45.668;18.980;2023-07-31T03:23:26;3.67;;;2.70;;
55053;SDS011;40954;45.668;18.980;2023-07-31T03:25:55;2.80;;;2.60;;
55053;SDS011;40954;45.668;18.980;2023-07-31T03:28:22;2.75;;;2.55;;
55053;SDS011;40954;45.668;18.980;2023-07-31T03:30:48;3.42;;;2.50;;
55053;SDS011;40954;45.668;18.980;2023-07-31T03:33:14;3.33;;;2.85;;
55053;SDS011;40954;45.668;18.980;2023-07-31T03:35:40;2.47;;;2.28;;
55053;SDS011;40954;45.668;18.980;2023-07-31T03:38:06;3.58;;;2.30;;
55053;SDS011;40954;45.668;18.980;2023-07-31T03:40:32;2.47;;;2.28;;
55053;SDS011;40954;45.668;18.980;2023-07-31T03:42:58;8.23;;;3.17;;
55053;SDS011;40954;45.668;18.980;2023-07-31T03:45:24;10.35;;;3.03;;
55053;SDS011;40954;45.668;18.980;2023-07-31T03:47:50;3.10;;;2.80;;
55053;SDS011;40954;45.668;18.980;2023-07-31T03:50:16;2.40;;;2.20;;
55053;SDS011;40954;45.668;18.980;2023-07-31T03:52:42;3.00;;;2.70;;
55053;SDS011;40954;45.668;18.980;2023-07-31T03:55:08;3.92;;;2.80;;
55053;SDS011;40954;45.668;18.980;2023-07-31T03:57:34;2.85;;;2.65;;
55053;SDS011;40954;45.668;18.980;2023-07-31T04:00:00;5.72;;;2.45;;
55053;SDS011;40954;45.668;18.980;2023-07-31T04:02:27;5.20;;;2.85;;
55053;SDS011;40954;45.668;18.980;2023-07-31T04:04:53;3.15;;;2.67;;
55053;SDS011;40954;45.668;18.980;2023-07-31T04:07:19;3.10;;;2.35;;
55053;SDS011;40954;45.668;18.980;2023-07-31T04:09:45;3.35;;;2.83;;
55053;SDS011;40954;45.668;18.980;2023-07-31T04:12:11;2.63;;;2.30;;
55053;SDS011;40954;45.668;18.980;2023-07-31T04:14:37;3.22;;;2.70;;
55053;SDS011;40954;45.668;18.980;2023-07-31T04:17:03;3.03;;;2.33;;
55053;SDS011;40954;45.668;18.980;2023-07-31T04:19:29;4.07;;;2.10;;
55053;SDS011;40954;45.668;18.980;2023-07-31T04:21:55;4.10;;;2.63;;
55053;SDS011;40954;45.668;18.980;2023-07-31T04:24:21;4.63;;;3.17;;
55053;SDS011;40954;45.668;18.980;2023-07-31T04:26:52;4.90;;;3.75;;
55053;SDS011;40954;45.668;18.980;2023-07-31T04:29:19;6.93;;;4.70;;
55053;SDS011;40954;45.668;18.980;2023-07-31T04:31:45;6.25;;;4.20;;
55053;SDS011;40954;45.668;18.980;2023-07-31T04:34:11;3.30;;;3.05;;
55053;SDS011;40954;45.668;18.980;2023-07-31T04:36:37;4.45;;;3.00;;
55053;SDS011;40954;45.668;18.980;2023-07-31T04:39:03;5.38;;;3.20;;
55053;SDS011;40954;45.668;18.980;2023-07-31T04:41:29;3.88;;;2.90;;
55053;SDS011;40954;45.668;18.980;2023-07-31T04:43:55;6.10;;;2.40;;
55053;SDS011;40954;45.668;18.980;2023-07-31T04:46:21;4.93;;;2.38;;
55053;SDS011;40954;45.668;18.980;2023-07-31T04:48:47;4.28;;;2.55;;
55053;SDS011;40954;45.668;18.980;2023-07-31T04:51:13;3.85;;;3.00;;
55053;SDS011;40954;45.668;18.980;2023-07-31T04:53:39;14.32;;;3.30;;
55053;SDS011;40954;45.668;18.980;2023-07-31T04:56:05;13.43;;;3.75;;
55053;SDS011;40954;45.668;18.980;2023-07-31T04:58:31;3.50;;;2.38;;
55053;SDS011;40954;45.668;18.980;2023-07-31T05:00:57;3.55;;;2.28;;
55053;SDS011;40954;45.668;18.980;2023-07-31T05:03:24;8.85;;;3.67;;
55053;SDS011;40954;45.668;18.980;2023-07-31T05:05:50;4.75;;;3.35;;
55053;SDS011;40954;45.668;18.980;2023-07-31T05:08:16;2.15;;;2.00;;
55053;SDS011;40954;45.668;18.980;2023-07-31T05:10:45;7.15;;;2.63;;
55053;SDS011;40954;45.668;18.980;2023-07-31T05:13:11;2.97;;;2.17;;
55053;SDS011;40954;45.668;18.980;2023-07-31T05:15:37;6.28;;;3.53;;
55053;SDS011;40954;45.668;18.980;2023-07-31T05:18:03;2.85;;;2.55;;
55053;SDS011;40954;45.668;18.980;2023-07-31T05:20:29;1.98;;;1.88;;
55053;SDS011;40954;45.668;18.980;2023-07-31T05:22:55;3.28;;;2.90;;
55053;SDS011;40954;45.668;18.980;2023-07-31T05:25:21;5.03;;;2.65;;
55053;SDS011;40954;45.668;18.980;2023-07-31T05:27:48;3.20;;;2.22;;
55053;SDS011;40954;45.668;18.980;2023-07-31T05:30:14;2.03;;;1.88;;
55053;SDS011;40954;45.668;18.980;2023-07-31T05:32:40;4.10;;;2.67;;
55053;SDS011;40954;45.668;18.980;2023-07-31T05:35:06;6.07;;;3.85;;
55053;SDS011;40954;45.668;18.980;2023-07-31T05:37:32;3.58;;;3.28;;
55053;SDS011;40954;45.668;18.980;2023-07-31T05:39:58;3.45;;;2.03;;
55053;SDS011;40954;45.668;18.980;2023-07-31T05:42:24;4.13;;;2.67;;
55053;SDS011;40954;45.668;18.980;2023-07-31T05:44:50;3.72;;;3.35;;
55053;SDS011;40954;45.668;18.980;2023-07-31T05:47:16;2.78;;;2.58;;
55053;SDS011;40954;45.668;18.980;2023-07-31T05:49:42;3.15;;;2.40;;
55053;SDS011;40954;45.668;18.980;2023-07-31T05:52:09;3.67;;;2.15;;
55053;SDS011;40954;45.668;18.980;2023-07-31T05:54:35;2.33;;;2.13;;
55053;SDS011;40954;45.668;18.980;2023-07-31T05:57:01;4.20;;;2.85;;
55053;SDS011;40954;45.668;18.980;2023-07-31T05:59:27;2.70;;;2.50;;
55053;SDS011;40954;45.668;18.980;2023-07-31T06:01:53;5.20;;;2.90;;
55053;SDS011;40954;45.668;18.980;2023-07-31T06:04:19;2.38;;;2.10;;
55053;SDS011;40954;45.668;18.980;2023-07-31T06:06:45;4.30;;;2.40;;
55053;SDS011;40954;45.668;18.980;2023-07-31T06:09:11;2.45;;;1.80;;
55053;SDS011;40954;45.668;18.980;2023-07-31T06:11:37;3.15;;;2.30;;
55053;SDS011;40954;45.668;18.980;2023-07-31T06:14:03;6.13;;;2.35;;
55053;SDS011;40954;45.668;18.980;2023-07-31T06:16:29;2.95;;;2.38;;
55053;SDS011;40954;45.668;18.980;2023-07-31T06:18:56;5.78;;;2.00;;
55053;SDS011;40954;45.668;18.980;2023-07-31T06:21:22;4.28;;;2.28;;
55053;SDS011;40954;45.668;18.980;2023-07-31T06:23:48;2.25;;;2.08;;
55053;SDS011;40954;45.668;18.980;2023-07-31T06:26:14;1.80;;;1.70;;
55053;SDS011;40954;45.668;18.980;2023-07-31T06:28:41;2.42;;;2.22;;
55053;SDS011;40954;45.668;18.980;2023-07-31T06:31:07;3.88;;;2.40;;
55053;SDS011;40954;45.668;18.980;2023-07-31T06:33:33;2.72;;;2.42;;
55053;SDS011;40954;45.668;18.980;2023-07-31T06:35:59;2.10;;;1.98;;
55053;SDS011;40954;45.668;18.980;2023-07-31T06:38:26;2.40;;;1.85;;
55053;SDS011;40954;45.668;18.980;2023-07-31T06:40:52;2.60;;;2.38;;
55053;SDS011;40954;45.668;18.980;2023-07-31T06:43:19;2.22;;;2.13;;
55053;SDS011;40954;45.668;18.980;2023-07-31T06:45:45;7.28;;;2.17;;
55053;SDS011;40954;45.668;18.980;2023-07-31T06:48:11;5.22;;;2.28;;
55053;SDS011;40954;45.668;18.980;2023-07-31T06:50:37;3.15;;;1.92;;
55053;SDS011;40954;45.668;18.980;2023-07-31T06:53:03;6.63;;;2.40;;
55053;SDS011;40954;45.668;18.980;2023-07-31T06:55:30;2.53;;;2.33;;
55053;SDS011;40954;45.668;18.980;2023-07-31T06:57:56;4.32;;;1.90;;
55053;SDS011;40954;45.668;18.980;2023-07-31T07:00:22;2.05;;;1.95;;
55053;SDS011;40954;45.668;18.980;2023-07-31T07:02:49;2.30;;;2.10;;
55053;SDS011;40954;45.668;18.980;2023-07-31T07:05:16;2.08;;;1.80;;
55053;SDS011;40954;45.668;18.980;2023-07-31T07:07:42;3.70;;;1.95;;
55053;SDS011;40954;45.668;18.980;2023-07-31T07:10:08;4.63;;;2.30;;
55053;SDS011;40954;45.668;18.980;2023-07-31T07:12:35;3.00;;;2.00;;
55053;SDS011;40954;45.668;18.980;2023-07-31T07:15:01;2.70;;;1.90;;
55053;SDS011;40954;45.668;18.980;2023-07-31T07:17:28;2.55;;;2.20;;
55053;SDS011;40954;45.668;18.980;2023-07-31T07:19:56;2.92;;;2.03;;
55053;SDS011;40954;45.668;18.980;2023-07-31T07:22:22;2.47;;;1.83;;
55053;SDS011;40954;45.668;18.980;2023-07-31T07:24:48;4.15;;;2.67;;
55053;SDS011;40954;45.668;18.980;2023-07-31T07:27:14;3.38;;;2.75;;
55053;SDS011;40954;45.668;18.980;2023-07-31T07:29:40;9.38;;;2.47;;
55053;SDS011;40954;45.668;18.980;2023-07-31T07:32:06;9.25;;;2.38;;
55053;SDS011;40954;45.668;18.980;2023-07-31T07:34:32;8.23;;;3.53;;
55053;SDS011;40954;45.668;18.980;2023-07-31T07:36:58;4.78;;;2.38;;
55053;SDS011;40954;45.668;18.980;2023-07-31T07:39:24;2.30;;;2.10;;
55053;SDS011;40954;45.668;18.980;2023-07-31T07:41:50;6.43;;;2.20;;
55053;SDS011;40954;45.668;18.980;2023-07-31T07:44:18;5.60;;;2.70;;
55053;SDS011;40954;45.668;18.980;2023-07-31T07:46:44;7.75;;;2.67;;
55053;SDS011;40954;45.668;18.980;2023-07-31T07:49:10;2.97;;;1.70;;
55053;SDS011;40954;45.668;18.980;2023-07-31T07:51:36;3.72;;;2.25;;
55053;SDS011;40954;45.668;18.980;2023-07-31T07:54:02;1.63;;;1.52;;
55053;SDS011;40954;45.668;18.980;2023-07-31T07:56:28;12.25;;;3.35;;
55053;SDS011;40954;45.668;18.980;2023-07-31T07:58:54;8.27;;;2.10;;
55053;SDS011;40954;45.668;18.980;2023-07-31T08:01:20;3.33;;;2.35;;
55053;SDS011;40954;45.668;18.980;2023-07-31T08:03:47;3.00;;;2.03;;
55053;SDS011;40954;45.668;18.980;2023-07-31T08:06:14;3.67;;;2.05;;
55053;SDS011;40954;45.668;18.980;2023-07-31T08:08:40;3.13;;;1.95;;
55053;SDS011;40954;45.668;18.980;2023-07-31T08:11:06;2.03;;;1.83;;
55053;SDS011;40954;45.668;18.980;2023-07-31T08:13:32;1.60;;;1.48;;
55053;SDS011;40954;45.668;18.980;2023-07-31T08:15:58;2.10;;;1.90;;
55053;SDS011;40954;45.668;18.980;2023-07-31T08:18:24;2.38;;;1.85;;
55053;SDS011;40954;45.668;18.980;2023-07-31T08:20:50;4.13;;;2.03;;
55053;SDS011;40954;45.668;18.980;2023-07-31T08:23:16;4.05;;;2.00;;
55053;SDS011;40954;45.668;18.980;2023-07-31T08:25:42;4.75;;;1.77;;
55053;SDS011;40954;45.668;18.980;2023-07-31T08:28:08;3.08;;;1.65;;
55053;SDS011;40954;45.668;18.980;2023-07-31T08:30:34;2.08;;;1.92;;
55053;SDS011;40954;45.668;18.980;2023-07-31T08:33:00;2.17;;;1.88;;
55053;SDS011;40954;45.668;18.980;2023-07-31T08:35:27;3.55;;;2.20;;
55053;SDS011;40954;45.668;18.980;2023-07-31T08:37:54;3.17;;;2.00;;
55053;SDS011;40954;45.668;18.980;2023-07-31T08:40:20;5.07;;;2.10;;
55053;SDS011;40954;45.668;18.980;2023-07-31T08:42:49;3.10;;;2.13;;
55053;SDS011;40954;45.668;18.980;2023-07-31T08:45:17;2.40;;;1.73;;
55053;SDS011;40954;45.668;18.980;2023-07-31T08:47:47;2.65;;;1.60;;
55053;SDS011;40954;45.668;18.980;2023-07-31T08:50:14;2.03;;;1.73;;
55053;SDS011;40954;45.668;18.980;2023-07-31T08:52:40;3.58;;;2.20;;
55053;SDS011;40954;45.668;18.980;2023-07-31T08:55:07;2.03;;;1.80;;
55053;SDS011;40954;45.668;18.980;2023-07-31T08:57:36;3.33;;;2.20;;
55053;SDS011;40954;45.668;18.980;2023-07-31T09:00:03;5.05;;;1.90;;
55053;SDS011;40954;45.668;18.980;2023-07-31T09:03:18;4.32;;;2.28;;
55053;SDS011;40954;45.668;18.980;2023-07-31T09:05:19;6.65;;;1.70;;
55053;SDS011;40954;45.668;18.980;2023-07-31T09:07:47;2.22;;;1.50;;
55053;SDS011;40954;45.668;18.980;2023-07-31T09:10:13;2.00;;;1.90;;
55053;SDS011;40954;45.668;18.980;2023-07-31T09:12:39;1.95;;;1.48;;
55053;SDS011;40954;45.668;18.980;2023-07-31T09:17:32;2.60;;;1.60;;
55053;SDS011;40954;45.668;18.980;2023-07-31T09:22:34;4.60;;;1.83;;
55053;SDS011;40954;45.668;18.980;2023-07-31T09:28:02;3.45;;;1.85;;
55053;SDS011;40954;45.668;18.980;2023-07-31T09:30:29;2.70;;;1.87;;
55053;SDS011;40954;45.668;18.980;2023-07-31T09:33:02;2.10;;;1.80;;
55053;SDS011;40954;45.668;18.980;2023-07-31T09:35:29;2.30;;;1.80;;
55053;SDS011;40954;45.668;18.980;2023-07-31T09:37:57;2.47;;;1.77;;
55053;SDS011;40954;45.668;18.980;2023-07-31T09:40:33;1.90;;;1.70;;
55053;SDS011;40954;45.668;18.980;2023-07-31T09:43:00;3.58;;;1.63;;
55053;SDS011;40954;45.668;18.980;2023-07-31T09:45:26;3.63;;;2.38;;
55053;SDS011;40954;45.668;18.980;2023-07-31T09:47:53;4.50;;;2.70;;
55053;SDS011;40954;45.668;18.980;2023-07-31T09:50:22;3.25;;;1.92;;
55053;SDS011;40954;45.668;18.980;2023-07-31T09:52:49;3.63;;;2.00;;
55053;SDS011;40954;45.668;18.980;2023-07-31T09:55:16;2.13;;;1.83;;
55053;SDS011;40954;45.668;18.980;2023-07-31T09:57:43;4.60;;;2.00;;
55053;SDS011;40954;45.668;18.980;2023-07-31T10:02:36;2.33;;;1.95;;
55053;SDS011;40954;45.668;18.980;2023-07-31T10:05:03;4.10;;;2.50;;
55053;SDS011;40954;45.668;18.980;2023-07-31T10:07:34;6.03;;;2.33;;
55053;SDS011;40954;45.668;18.980;2023-07-31T10:10:02;2.45;;;1.83;;
55053;SDS011;40954;45.668;18.980;2023-07-31T10:12:29;2.20;;;1.70;;
55053;SDS011;40954;45.668;18.980;2023-07-31T10:14:57;1.98;;;1.80;;
55053;SDS011;40954;45.668;18.980;2023-07-31T10:17:24;2.03;;;1.80;;
55053;SDS011;40954;45.668;18.980;2023-07-31T10:19:50;4.13;;;1.90;;
55053;SDS011;40954;45.668;18.980;2023-07-31T10:22:16;2.90;;;1.63;;
55053;SDS011;40954;45.668;18.980;2023-07-31T10:24:43;2.92;;;1.92;;
55053;SDS011;40954;45.668;18.980;2023-07-31T10:27:10;2.10;;;1.70;;
55053;SDS011;40954;45.668;18.980;2023-07-31T10:29:40;2.08;;;1.88;;
55053;SDS011;40954;45.668;18.980;2023-07-31T10:32:07;3.10;;;1.60;;
55053;SDS011;40954;45.668;18.980;2023-07-31T10:34:38;2.63;;;1.98;;
55053;SDS011;40954;45.668;18.980;2023-07-31T10:37:39;2.35;;;1.77;;
55053;SDS011;40954;45.668;18.980;2023-07-31T10:39:59;3.50;;;1.88;;
55053;SDS011;40954;45.668;18.980;2023-07-31T10:47:58;3.90;;;1.80;;
55053;SDS011;40954;45.668;18.980;2023-07-31T10:50:25;2.30;;;1.80;;
55053;SDS011;40954;45.668;18.980;2023-07-31T10:52:55;1.92;;;1.75;;
55053;SDS011;40954;45.668;18.980;2023-07-31T10:57:51;2.00;;;1.70;;
55053;SDS011;40954;45.668;18.980;2023-07-31T11:00:20;1.95;;;1.67;;
55053;SDS011;40954;45.668;18.980;2023-07-31T11:05:41;3.33;;;1.73;;
55053;SDS011;40954;45.668;18.980;2023-07-31T11:08:11;4.40;;;1.98;;
55053;SDS011;40954;45.668;18.980;2023-07-31T11:10:37;2.70;;;2.08;;
55053;SDS011;40954;45.668;18.980;2023-07-31T11:13:06;1.50;;;1.40;;
55053;SDS011;40954;45.668;18.980;2023-07-31T11:15:32;3.80;;;1.80;;
55053;SDS011;40954;45.668;18.980;2023-07-31T11:18:00;1.95;;;1.67;;
55053;SDS011;40954;45.668;18.980;2023-07-31T11:20:32;1.65;;;1.55;;
55053;SDS011;40954;45.668;18.980;2023-07-31T11:22:59;2.33;;;1.90;;
55053;SDS011;40954;45.668;18.980;2023-07-31T11:25:25;2.85;;;1.80;;
55053;SDS011;40954;45.668;18.980;2023-07-31T11:27:51;2.95;;;2.10;;
55053;SDS011;40954;45.668;18.980;2023-07-31T11:30:19;2.13;;;1.63;;
55053;SDS011;40954;45.668;18.980;2023-07-31T11:32:45;3.28;;;1.85;;
55053;SDS011;40954;45.668;18.980;2023-07-31T11:35:14;2.28;;;1.70;;
55053;SDS011;40954;45.668;18.980;2023-07-31T11:37:41;2.88;;;1.63;;
55053;SDS011;40954;45.668;18.980;2023-07-31T11:40:09;2.38;;;1.85;;
55053;SDS011;40954;45.668;18.980;2023-07-31T11:42:35;2.78;;;1.90;;
55053;SDS011;40954;45.668;18.980;2023-07-31T11:45:02;2.95;;;1.92;;
55053;SDS011;40954;45.668;18.980;2023-07-31T11:47:28;2.05;;;1.77;;
55053;SDS011;40954;45.668;18.980;2023-07-31T11:49:55;3.15;;;1.50;;
55053;SDS011;40954;45.668;18.980;2023-07-31T11:52:21;2.70;;;1.63;;
55053;SDS011;40954;45.668;18.980;2023-07-31T11:54:49;3.15;;;1.95;;
55053;SDS011;40954;45.668;18.980;2023-07-31T11:57:15;2.50;;;1.52;;
55053;SDS011;40954;45.668;18.980;2023-07-31T11:59:42;2.30;;;2.10;;
55053;SDS011;40954;45.668;18.980;2023-07-31T12:02:08;1.90;;;1.80;;
55053;SDS011;40954;45.668;18.980;2023-07-31T12:04:35;2.00;;;1.90;;
55053;SDS011;40954;45.668;18.980;2023-07-31T12:07:01;2.95;;;1.80;;
55053;SDS011;40954;45.668;18.980;2023-07-31T12:09:27;2.58;;;1.55;;
55053;SDS011;40954;45.668;18.980;2023-07-31T12:11:53;2.00;;;1.90;;
55053;SDS011;40954;45.668;18.980;2023-07-31T12:14:28;2.45;;;1.88;;
55053;SDS011;40954;45.668;18.980;2023-07-31T12:16:55;2.03;;;1.75;;
55053;SDS011;40954;45.668;18.980;2023-07-31T12:19:21;2.38;;;1.70;;
55053;SDS011;40954;45.668;18.980;2023-07-31T12:21:49;2.20;;;1.80;;
55053;SDS011;40954;45.668;18.980;2023-07-31T12:24:17;2.00;;;1.40;;
55053;SDS011;40954;45.668;18.980;2023-07-31T12:26:45;1.80;;;1.60;;
55053;SDS011;40954;45.668;18.980;2023-07-31T12:29:14;3.05;;;1.50;;
55053;SDS011;40954;45.668;18.980;2023-07-31T12:31:41;2.72;;;1.95;;
55053;SDS011;40954;45.668;18.980;2023-07-31T12:34:17;3.10;;;2.00;;
55053;SDS011;40954;45.668;18.980;2023-07-31T12:36:43;2.08;;;1.90;;
55053;SDS011;40954;45.668;18.980;2023-07-31T12:39:10;2.42;;;1.90;;
55053;SDS011;40954;45.668;18.980;2023-07-31T12:41:36;4.82;;;1.70;;
55053;SDS011;40954;45.668;18.980;2023-07-31T12:44:02;6.78;;;2.15;;
55053;SDS011;40954;45.668;18.980;2023-07-31T12:46:28;2.08;;;1.80;;
55053;SDS011;40954;45.668;18.980;2023-07-31T12:48:54;3.33;;;1.60;;
55053;SDS011;40954;45.668;18.980;2023-07-31T12:51:20;3.03;;;1.50;;
55053;SDS011;40954;45.668;18.980;2023-07-31T12:53:47;3.28;;;1.60;;
55053;SDS011;40954;45.668;18.980;2023-07-31T12:56:13;4.03;;;1.90;;
55053;SDS011;40954;45.668;18.980;2023-07-31T12:58:39;3.15;;;1.80;;
55053;SDS011;40954;45.668;18.980;2023-07-31T13:01:05;2.15;;;1.95;;
55053;SDS011;40954;45.668;18.980;2023-07-31T13:03:31;2.53;;;1.90;;
55053;SDS011;40954;45.668;18.980;2023-07-31T13:05:57;5.18;;;2.17;;
55053;SDS011;40954;45.668;18.980;2023-07-31T13:08:23;2.10;;;1.83;;
55053;SDS011;40954;45.668;18.980;2023-07-31T13:10:49;5.88;;;2.00;;
55053;SDS011;40954;45.668;18.980;2023-07-31T13:13:15;2.00;;;1.80;;
55053;SDS011;40954;45.668;18.980;2023-07-31T13:15:43;3.10;;;1.65;;
55053;SDS011;40954;45.668;18.980;2023-07-31T13:18:10;1.65;;;1.55;;
55053;SDS011;40954;45.668;18.980;2023-07-31T13:20:36;2.72;;;1.77;;
55053;SDS011;40954;45.668;18.980;2023-07-31T13:23:02;3.08;;;1.70;;
55053;SDS011;40954;45.668;18.980;2023-07-31T13:25:28;2.78;;;1.90;;
55053;SDS011;40954;45.668;18.980;2023-07-31T13:27:54;3.20;;;2.00;;
55053;SDS011;40954;45.668;18.980;2023-07-31T13:30:20;2.83;;;1.98;;
55053;SDS011;40954;45.668;18.980;2023-07-31T13:32:46;1.80;;;1.65;;
55053;SDS011;40954;45.668;18.980;2023-07-31T13:35:13;1.90;;;1.80;;
55053;SDS011;40954;45.668;18.980;2023-07-31T13:37:39;2.50;;;1.90;;
55053;SDS011;40954;45.668;18.980;2023-07-31T13:40:05;2.40;;;1.75;;
55053;SDS011;40954;45.668;18.980;2023-07-31T13:42:31;3.20;;;1.58;;
55053;SDS011;40954;45.668;18.980;2023-07-31T13:44:57;2.10;;;1.85;;
55053;SDS011;40954;45.668;18.980;2023-07-31T13:47:24;2.38;;;1.73;;
55053;SDS011;40954;45.668;18.980;2023-07-31T13:49:50;3.33;;;2.00;;
55053;SDS011;40954;45.668;18.980;2023-07-31T13:52:16;1.70;;;1.60;;
55053;SDS011;40954;45.668;18.980;2023-07-31T13:54:42;1.70;;;1.55;;
55053;SDS011;40954;45.668;18.980;2023-07-31T13:57:08;2.40;;;1.80;;
55053;SDS011;40954;45.668;18.980;2023-07-31T13:59:34;2.70;;;2.22;;
55053;SDS011;40954;45.668;18.980;2023-07-31T14:02:01;2.03;;;1.85;;
55053;SDS011;40954;45.668;18.980;2023-07-31T14:04:27;2.15;;;1.92;;
55053;SDS011;40954;45.668;18.980;2023-07-31T14:06:53;1.52;;;1.42;;
55053;SDS011;40954;45.668;18.980;2023-07-31T14:09:19;3.10;;;1.90;;
55053;SDS011;40954;45.668;18.980;2023-07-31T14:11:45;2.13;;;1.85;;
55053;SDS011;40954;45.668;18.980;2023-07-31T14:14:11;2.60;;;1.85;;
55053;SDS011;40954;45.668;18.980;2023-07-31T14:16:38;3.63;;;1.90;;
55053;SDS011;40954;45.668;18.980;2023-07-31T14:19:05;3.13;;;1.83;;
55053;SDS011;40954;45.668;18.980;2023-07-31T14:21:32;2.05;;;1.60;;
55053;SDS011;40954;45.668;18.980;2023-07-31T14:23:58;3.80;;;1.77;;
55053;SDS011;40954;45.668;18.980;2023-07-31T14:26:24;3.33;;;1.98;;
55053;SDS011;40954;45.668;18.980;2023-07-31T14:28:50;3.63;;;2.03;;
55053;SDS011;40954;45.668;18.980;2023-07-31T14:31:16;2.80;;;1.63;;
55053;SDS011;40954;45.668;18.980;2023-07-31T14:33:42;2.42;;;1.70;;
55053;SDS011;40954;45.668;18.980;2023-07-31T14:36:08;1.75;;;1.65;;
55053;SDS011;40954;45.668;18.980;2023-07-31T14:38:35;2.67;;;1.90;;
55053;SDS011;40954;45.668;18.980;2023-07-31T14:41:01;3.90;;;1.90;;
55053;SDS011;40954;45.668;18.980;2023-07-31T14:43:27;2.15;;;1.80;;
55053;SDS011;40954;45.668;18.980;2023-07-31T14:45:53;1.92;;;1.83;;
55053;SDS011;40954;45.668;18.980;2023-07-31T14:48:22;3.13;;;2.15;;
55053;SDS011;40954;45.668;18.980;2023-07-31T14:50:48;3.10;;;2.10;;
55053;SDS011;40954;45.668;18.980;2023-07-31T14:53:14;3.65;;;2.30;;
55053;SDS011;40954;45.668;18.980;2023-07-31T14:55:40;1.77;;;1.67;;
55053;SDS011;40954;45.668;18.980;2023-07-31T14:58:06;1.90;;;1.80;;
55053;SDS011;40954;45.668;18.980;2023-07-31T15:00:35;2.70;;;1.60;;
55053;SDS011;40954;45.668;18.980;2023-07-31T15:03:01;2.47;;;1.60;;